Henrietta, New York
Current Conditions -  °F | °C
As of 4:54 AM on Monday 20 Oct 2014 (Local Time) from KROC Reporting Station
Overcast Overcast  
Wind Chill: 38°   Ceiling: 3000
Heat Index: 42°   Visibility: 10mi
Dew Point: 35°   Wind: 6mph
Humidity: 76%   Direction: 230°SW
Pressure: 29.98"   Gusts: NA
Location:  43.06°N, 77.61°W
Report Text: KROC 200854Z 23005KT 10SM BKN030 OVC110 06/02 A2998 RMK AO2 SLP160 T00560017 56010
Loading
Personal Weather Stations






























Interactive Weather Map
Tropical Storm Tracking
New forecast layout! Learn more

10-Day Weather Forecast

Advertisements
Track Severe Weather on mobile